Time;durP1;ratioP1;P1;durP2;ratioP2;P2;SDS_P1;SDS_P2;PMS_P1;PMS_P2;Temp;Humidity;BMP_temperature;BMP_pressure;BME280_temperature;BME280_humidity;BME280_pressure;Samples;Min_cycle;Max_cycle;Signal;HPM_P1;HPM_P2
2021/12/02 00:01:35;;;;;;;7.82;1.80;;;5.40;99.90;;;;;;5075752;28;20289;-79
2021/12/02 00:04:02;;;;;;;13.85;1.85;;;5.30;99.90;;;;;;5076162;28;20203;-79
2021/12/02 00:06:29;;;;;;;7.22;1.77;;;5.30;99.90;;;;;;5073774;28;20242;-80
2021/12/02 00:08:59;;;;;;;5.00;1.50;;;5.30;99.90;;;;;;5059880;28;20652;-78
2021/12/02 00:11:28;;;;;;;6.05;2.92;;;5.30;99.90;;;;;;5066087;28;20206;-78
2021/12/02 00:13:57;;;;;;;4.82;1.80;;;5.20;99.90;;;;;;5071734;28;20200;-79
2021/12/02 00:16:30;;;;;;;6.45;1.60;;;5.30;99.90;;;;;;5073285;28;20198;-77
2021/12/02 00:21:45;;;;;;;7.30;2.10;;;5.30;99.90;;;;;;5064885;28;20718;-78
2021/12/02 00:24:18;;;;;;;2.92;1.15;;;5.30;99.90;;;;;;5075515;28;20267;-78
2021/12/02 00:26:48;;;;;;;7.30;1.92;;;5.30;99.90;;;;;;5076046;28;20645;-77
2021/12/02 00:29:18;;;;;;;6.82;1.70;;;5.30;99.90;;;;;;5064790;28;20222;-77
2021/12/02 00:31:47;;;;;;;2.72;2.03;;;5.30;99.90;;;;;;5064299;28;20227;-78
2021/12/02 00:34:15;;;;;;;4.18;2.00;;;5.40;99.90;;;;;;5073764;28;20199;-79
2021/12/02 00:36:43;;;;;;;5.65;1.52;;;5.40;99.90;;;;;;5075700;28;20199;-77
2021/12/02 00:39:11;;;;;;;4.65;1.85;;;5.40;99.90;;;;;;5075036;28;20195;-77
2021/12/02 00:41:38;;;;;;;6.47;1.42;;;5.50;99.90;;;;;;5067214;28;20208;-78
2021/12/02 00:44:08;;;;;;;5.68;1.23;;;5.50;99.90;;;;;;5071260;28;20197;-79
2021/12/02 00:46:36;;;;;;;12.07;2.75;;;5.50;99.90;;;;;;5066435;28;20606;-78
2021/12/02 00:49:06;;;;;;;8.73;1.80;;;5.50;99.90;;;;;;5073816;28;20254;-78
2021/12/02 00:51:34;;;;;;;13.88;2.30;;;5.50;99.90;;;;;;5073579;28;20211;-82
2021/12/02 00:54:05;;;;;;;4.25;1.63;;;5.30;99.90;;;;;;5072986;28;20285;-82
2021/12/02 00:56:32;;;;;;;19.13;2.17;;;5.20;99.90;;;;;;5070299;28;20268;-80
2021/12/02 00:59:00;;;;;;;9.60;2.10;;;5.20;99.90;;;;;;5071572;28;20270;-80
2021/12/02 01:01:33;;;;;;;8.40;1.88;;;5.10;99.90;;;;;;5064651;28;20210;-80
2021/12/02 01:04:01;;;;;;;9.02;2.55;;;5.10;99.90;;;;;;5074390;28;20261;-80
2021/12/02 01:06:30;;;;;;;5.40;1.70;;;5.10;99.90;;;;;;5083009;28;20209;-83
2021/12/02 01:08:57;;;;;;;5.68;2.35;;;5.20;99.90;;;;;;5079214;28;20294;-81
2021/12/02 01:11:24;;;;;;;17.42;3.97;;;5.00;99.90;;;;;;5075997;28;20198;-84
2021/12/02 01:13:51;;;;;;;18.58;2.28;;;5.10;99.90;;;;;;5079065;28;20732;-83
2021/12/02 01:16:21;;;;;;;6.88;2.20;;;5.20;99.90;;;;;;5076501;28;20629;-83
2021/12/02 01:18:49;;;;;;;4.80;2.10;;;5.10;99.90;;;;;;5059764;28;20609;-83
2021/12/02 01:21:19;;;;;;;15.75;2.67;;;5.10;99.90;;;;;;5076640;28;20205;-82
2021/12/02 01:23:50;;;;;;;6.55;2.25;;;5.10;99.90;;;;;;5076760;28;20281;-83
2021/12/02 01:26:19;;;;;;;7.70;2.92;;;5.20;99.90;;;;;;5076374;28;20274;-82
2021/12/02 01:28:47;;;;;;;14.38;2.10;;;5.10;99.90;;;;;;5076102;28;20298;-83
2021/12/02 01:31:15;;;;;;;9.52;1.77;;;5.00;99.90;;;;;;5075362;28;20195;-82
2021/12/02 01:33:45;;;;;;;6.38;1.77;;;5.00;99.90;;;;;;5072747;28;20593;-82
2021/12/02 01:36:14;;;;;;;4.82;1.85;;;4.90;99.90;;;;;;5064640;28;20200;-82
2021/12/02 01:38:42;;;;;;;5.90;2.05;;;4.80;99.90;;;;;;5071497;28;20658;-81
2021/12/02 01:41:09;;;;;;;10.52;2.15;;;4.70;99.90;;;;;;5063911;28;20206;-82
2021/12/02 01:43:55;;;;;;;2.65;1.33;;;4.70;99.90;;;;;;5064176;28;20276;-81
2021/12/02 01:46:25;;;;;;;7.57;2.83;;;4.80;99.90;;;;;;5066600;28;20199;-81
2021/12/02 01:49:00;;;;;;;5.00;1.98;;;4.80;99.90;;;;;;5060504;28;20220;-81
2021/12/02 01:51:31;;;;;;;8.98;1.65;;;4.80;99.90;;;;;;5063780;28;20704;-80
2021/12/02 01:54:05;;;;;;;7.63;1.83;;;4.80;99.90;;;;;;5070769;28;20204;-80
2021/12/02 01:56:36;;;;;;;15.68;2.53;;;4.80;99.90;;;;;;5058115;28;20203;-80
2021/12/02 01:59:10;;;;;;;11.25;2.05;;;4.90;99.90;;;;;;5070508;28;20191;-80
2021/12/02 02:01:41;;;;;;;10.57;2.10;;;4.90;99.90;;;;;;5073880;28;20268;-81
2021/12/02 02:04:08;;;;;;;15.27;2.25;;;5.00;99.90;;;;;;5067870;28;20279;-80
2021/12/02 02:06:39;;;;;;;12.27;1.90;;;5.00;99.90;;;;;;5066884;28;20258;-80
2021/12/02 02:09:08;;;;;;;5.32;1.42;;;4.90;99.90;;;;;;5074593;28;20218;-80
2021/12/02 02:11:35;;;;;;;4.90;2.70;;;4.90;99.90;;;;;;5072365;28;20208;-80
2021/12/02 02:14:02;;;;;;;3.85;1.88;;;4.80;99.90;;;;;;5065528;28;20195;-80
2021/12/02 02:16:29;;;;;;;7.15;1.60;;;4.90;99.90;;;;;;5061222;28;20290;-80
2021/12/02 02:18:56;;;;;;;4.95;2.40;;;4.90;99.90;;;;;;5067867;28;20249;-81
2021/12/02 02:21:25;;;;;;;8.57;1.90;;;4.80;99.90;;;;;;5073185;28;20576;-80
2021/12/02 02:23:58;;;;;;;8.55;1.80;;;4.70;99.90;;;;;;5070613;28;20234;-80
2021/12/02 02:26:28;;;;;;;7.30;2.05;;;4.80;99.90;;;;;;5063063;28;20261;-79
2021/12/02 02:28:56;;;;;;;5.55;2.78;;;4.70;99.90;;;;;;5069157;28;20230;-79
2021/12/02 02:31:24;;;;;;;7.05;1.70;;;4.70;99.90;;;;;;5066658;28;20256;-80
2021/12/02 02:33:53;;;;;;;4.78;1.65;;;4.70;99.90;;;;;;5061208;28;20195;-79
2021/12/02 02:36:22;;;;;;;6.05;1.95;;;4.70;99.90;;;;;;5074418;28;20634;-79
2021/12/02 02:38:57;;;;;;;9.57;2.15;;;4.70;99.90;;;;;;5074052;28;20230;-79
2021/12/02 02:41:26;;;;;;;10.27;2.63;;;4.80;99.90;;;;;;5074848;28;20206;-80
2021/12/02 02:43:56;;;;;;;11.95;2.50;;;4.60;99.90;;;;;;5072821;28;20219;-79
2021/12/02 02:46:25;;;;;;;4.50;1.55;;;4.60;99.90;;;;;;5073769;28;20229;-80
2021/12/02 02:48:52;;;;;;;3.92;2.00;;;4.60;99.90;;;;;;5074702;28;20569;-79
2021/12/02 02:51:20;;;;;;;13.95;5.75;;;4.60;99.90;;;;;;5067747;28;20231;-79
2021/12/02 02:53:53;;;;;;;3.75;1.40;;;4.70;99.90;;;;;;5073787;28;20282;-79
2021/12/02 02:56:21;;;;;;;7.95;1.65;;;4.70;99.90;;;;;;5069768;28;20199;-79
2021/12/02 02:59:03;;;;;;;10.30;3.60;;;4.70;99.90;;;;;;5077541;28;20199;-78
2021/12/02 03:01:40;;;;;;;6.53;2.03;;;4.60;99.90;;;;;;5060709;28;20203;-78
2021/12/02 03:04:20;;;;;;;13.73;3.25;;;4.70;99.90;;;;;;5057251;28;20678;-80
2021/12/02 03:06:52;;;;;;;9.13;2.25;;;4.60;99.90;;;;;;5043457;28;20290;-77
2021/12/02 03:09:36;;;;;;;3.85;1.30;;;4.60;99.90;;;;;;5064258;28;20297;-78
2021/12/02 03:12:08;;;;;;;9.90;1.75;;;4.60;99.90;;;;;;5072025;28;20223;-77
2021/12/02 03:14:48;;;;;;;7.53;1.73;;;4.60;99.90;;;;;;5075615;28;20712;-78
2021/12/02 03:17:14;;;;;;;4.55;1.55;;;4.60;99.90;;;;;;5073030;28;20206;-77
2021/12/02 03:19:43;;;;;;;7.70;2.67;;;4.60;99.90;;;;;;5060969;28;20201;-77
2021/12/02 03:22:12;;;;;;;4.25;1.52;;;4.50;99.90;;;;;;5071266;28;20310;-78
2021/12/02 03:24:41;;;;;;;9.15;2.75;;;4.50;99.90;;;;;;5066003;28;20552;-77
2021/12/02 03:27:08;;;;;;;8.20;3.88;;;4.50;99.90;;;;;;5058706;28;20206;-78
2021/12/02 03:29:36;;;;;;;5.38;1.75;;;4.50;99.90;;;;;;5064814;28;20206;-74
2021/12/02 03:32:04;;;;;;;7.68;2.90;;;4.40;99.90;;;;;;5074135;28;20310;-76
2021/12/02 03:34:31;;;;;;;6.25;1.98;;;4.40;99.90;;;;;;5063886;28;20215;-75
2021/12/02 03:36:58;;;;;;;3.10;1.27;;;4.30;99.90;;;;;;5061244;28;20192;-75
2021/12/02 03:39:26;;;;;;;5.75;1.60;;;4.30;99.90;;;;;;5072357;28;20195;-75
2021/12/02 03:41:55;;;;;;;6.05;1.70;;;4.20;99.90;;;;;;5064776;28;20237;-73
2021/12/02 03:44:22;;;;;;;4.95;1.33;;;4.20;99.90;;;;;;5062632;28;20290;-75
2021/12/02 03:46:50;;;;;;;8.30;2.35;;;4.30;99.90;;;;;;5071872;28;20196;-73
2021/12/02 03:49:17;;;;;;;1.88;1.05;;;4.30;99.90;;;;;;5073092;28;20199;-75
2021/12/02 03:51:44;;;;;;;9.10;1.40;;;4.30;99.90;;;;;;5070209;28;20294;-76
2021/12/02 03:54:11;;;;;;;6.95;2.65;;;4.20;99.90;;;;;;5078182;28;20289;-74
2021/12/02 03:56:38;;;;;;;7.40;1.90;;;4.20;99.90;;;;;;5073328;28;20192;-74
2021/12/02 03:59:07;;;;;;;10.88;2.22;;;4.20;99.90;;;;;;5072345;28;20201;-74
2021/12/02 04:01:34;;;;;;;5.43;1.60;;;4.20;99.90;;;;;;5060346;28;20214;-73
2021/12/02 04:04:01;;;;;;;5.72;1.27;;;4.20;99.90;;;;;;5069733;28;20207;-74
2021/12/02 04:06:28;;;;;;;1.35;0.88;;;4.20;99.90;;;;;;5075607;28;20199;-73
2021/12/02 04:08:57;;;;;;;6.72;2.65;;;4.20;99.90;;;;;;5072482;28;20226;-74
2021/12/02 04:11:30;;;;;;;5.15;1.30;;;4.20;99.90;;;;;;5065828;28;20599;-73
2021/12/02 04:14:08;;;;;;;5.40;1.80;;;4.20;99.90;;;;;;5060068;28;20204;-73
2021/12/02 04:16:39;;;;;;;5.45;1.52;;;4.20;99.90;;;;;;5073736;28;20611;-73
2021/12/02 04:19:08;;;;;;;7.25;2.08;;;4.20;99.90;;;;;;5075635;28;20616;-73
2021/12/02 04:21:36;;;;;;;4.57;1.80;;;4.20;99.90;;;;;;5067627;28;20202;-74
2021/12/02 04:24:04;;;;;;;7.28;1.83;;;4.20;99.90;;;;;;5073054;28;20641;-74
2021/12/02 04:26:31;;;;;;;6.13;1.75;;;4.30;99.90;;;;;;5075286;28;20211;-75
2021/12/02 04:28:57;;;;;;;5.80;1.30;;;4.30;99.90;;;;;;5075299;28;20203;-73
2021/12/02 04:31:24;;;;;;;2.00;1.33;;;4.40;99.90;;;;;;5063326;28;20210;-75
2021/12/02 04:33:53;;;;;;;3.58;1.75;;;4.40;99.90;;;;;;5075175;28;20207;-73
2021/12/02 04:36:20;;;;;;;9.00;2.40;;;4.50;99.90;;;;;;5065958;28;20677;-74
2021/12/02 04:38:47;;;;;;;7.82;2.25;;;4.60;99.90;;;;;;5070040;28;20245;-74
2021/12/02 04:41:16;;;;;;;12.35;3.30;;;4.70;99.90;;;;;;5059092;28;20200;-73
2021/12/02 04:43:43;;;;;;;4.25;1.98;;;4.70;99.90;;;;;;5071245;28;20250;-73
2021/12/02 04:46:10;;;;;;;5.97;1.80;;;4.70;99.90;;;;;;5067430;28;20236;-75
2021/12/02 04:48:37;;;;;;;6.50;1.67;;;4.70;99.90;;;;;;5074433;28;20670;-74
2021/12/02 04:51:05;;;;;;;8.40;2.15;;;4.70;99.90;;;;;;5073807;28;20677;-74
2021/12/02 04:53:32;;;;;;;5.55;1.73;;;4.70;99.90;;;;;;5069727;28;20309;-74
2021/12/02 04:55:59;;;;;;;10.15;1.80;;;4.80;99.90;;;;;;5075286;28;20205;-73
2021/12/02 04:58:26;;;;;;;6.43;1.65;;;4.70;99.90;;;;;;5074248;28;20199;-74
2021/12/02 05:00:53;;;;;;;7.45;1.95;;;4.70;99.90;;;;;;5073573;28;20199;-75
2021/12/02 05:03:20;;;;;;;8.40;1.95;;;4.70;99.90;;;;;;5073154;28;20218;-74
2021/12/02 05:05:47;;;;;;;6.50;3.45;;;4.80;99.90;;;;;;5074600;28;20230;-74
2021/12/02 05:08:15;;;;;;;5.40;1.77;;;4.90;99.90;;;;;;5065971;28;20713;-75
2021/12/02 05:10:43;;;;;;;11.30;1.95;;;4.90;99.90;;;;;;5058030;28;20631;-75
2021/12/02 05:13:09;;;;;;;1.85;1.15;;;4.80;99.90;;;;;;5064923;28;20223;-74
2021/12/02 05:15:36;;;;;;;2.50;1.40;;;4.90;99.90;;;;;;5068371;28;20657;-75
2021/12/02 05:18:04;;;;;;;6.53;1.70;;;4.90;99.90;;;;;;5066618;28;20230;-73
2021/12/02 05:20:31;;;;;;;3.33;1.27;;;5.00;99.90;;;;;;5065449;28;20625;-73
2021/12/02 05:22:58;;;;;;;8.05;3.28;;;5.10;99.90;;;;;;5067775;28;20303;-74
2021/12/02 05:25:26;;;;;;;8.88;2.00;;;5.10;99.90;;;;;;5074164;28;20298;-75
2021/12/02 05:27:53;;;;;;;5.50;1.67;;;5.10;99.90;;;;;;5074206;28;20282;-74
2021/12/02 05:30:21;;;;;;;7.28;1.60;;;5.20;99.90;;;;;;5067252;28;20211;-74
2021/12/02 05:32:48;;;;;;;2.90;0.93;;;5.10;99.90;;;;;;5071015;28;20222;-75
2021/12/02 05:35:15;;;;;;;4.10;1.50;;;5.10;99.90;;;;;;5073783;28;20249;-74
2021/12/02 05:37:42;;;;;;;2.58;1.20;;;5.00;99.90;;;;;;5074282;28;20281;-74
2021/12/02 05:40:10;;;;;;;6.32;1.42;;;4.80;99.90;;;;;;5061904;28;20226;-76
2021/12/02 05:42:38;;;;;;;7.13;1.50;;;4.70;99.90;;;;;;5065480;28;20223;-75
2021/12/02 05:45:06;;;;;;;3.00;1.00;;;4.60;99.90;;;;;;5073767;28;20235;-76
2021/12/02 05:47:33;;;;;;;1.23;1.05;;;4.50;99.90;;;;;;5063800;28;20290;-75
2021/12/02 05:50:00;;;;;;;2.53;1.05;;;4.30;99.90;;;;;;5062924;28;20368;-77
2021/12/02 05:52:27;;;;;;;2.95;1.92;;;4.30;99.90;;;;;;5073255;28;20592;-77
2021/12/02 05:54:54;;;;;;;1.90;1.10;;;4.10;99.90;;;;;;5068043;28;20290;-77
2021/12/02 05:57:21;;;;;;;2.75;1.08;;;4.10;99.90;;;;;;5071417;28;20281;-78
2021/12/02 05:59:49;;;;;;;3.63;1.95;;;4.00;99.90;;;;;;5068349;28;20282;-76
2021/12/02 06:02:16;;;;;;;9.13;1.48;;;4.00;99.90;;;;;;5065546;28;20223;-77
2021/12/02 06:04:45;;;;;;;6.25;2.80;;;4.10;99.90;;;;;;5076089;28;20236;-77
2021/12/02 06:07:19;;;;;;;1.52;0.90;;;4.10;99.90;;;;;;5073688;28;20210;-76
2021/12/02 06:09:46;;;;;;;1.67;1.02;;;4.10;99.90;;;;;;5065669;28;20201;-77
2021/12/02 06:12:13;;;;;;;1.90;1.20;;;4.20;99.90;;;;;;5072644;28;20992;-74
2021/12/02 06:14:40;;;;;;;3.70;1.00;;;4.20;99.90;;;;;;5071963;28;20205;-72
2021/12/02 06:17:09;;;;;;;2.58;1.13;;;4.00;99.90;;;;;;5060903;28;20206;-72
2021/12/02 06:19:35;;;;;;;3.78;1.33;;;3.90;99.90;;;;;;5067787;28;20720;-71
2021/12/02 06:22:03;;;;;;;2.38;0.90;;;3.90;99.90;;;;;;5069277;28;20308;-75
2021/12/02 06:24:32;;;;;;;5.43;1.25;;;3.90;99.90;;;;;;5073092;28;20286;-75
2021/12/02 06:27:00;;;;;;;3.92;2.20;;;4.00;99.90;;;;;;5075498;28;20215;-75
2021/12/02 06:29:27;;;;;;;4.35;1.67;;;4.00;99.90;;;;;;5065008;28;20290;-75
2021/12/02 06:31:54;;;;;;;6.20;2.58;;;4.00;99.90;;;;;;5068415;28;20310;-76
2021/12/02 06:34:22;;;;;;;3.50;2.03;;;4.00;99.90;;;;;;5066437;28;20285;-75
2021/12/02 06:36:49;;;;;;;3.20;2.30;;;4.10;99.90;;;;;;5063786;28;20202;-75
2021/12/02 06:39:16;;;;;;;3.03;2.75;;;4.00;99.90;;;;;;5076186;28;20282;-78
2021/12/02 06:41:43;;;;;;;5.05;2.38;;;4.00;99.90;;;;;;5069907;28;20207;-76
2021/12/02 06:44:10;;;;;;;3.95;2.10;;;4.00;99.90;;;;;;5078498;28;20197;-75
2021/12/02 06:46:37;;;;;;;3.95;2.35;;;4.00;99.90;;;;;;5075507;28;20191;-75
2021/12/02 06:49:04;;;;;;;7.03;3.20;;;4.00;99.90;;;;;;5077317;28;20282;-75
2021/12/02 06:51:33;;;;;;;9.85;3.22;;;4.00;99.90;;;;;;5070681;28;20220;-74
2021/12/02 06:54:00;;;;;;;11.35;5.03;;;4.10;99.90;;;;;;5064550;28;20199;-75
2021/12/02 06:56:27;;;;;;;11.60;4.28;;;4.00;99.90;;;;;;5067843;28;20303;-76
2021/12/02 06:58:54;;;;;;;9.00;4.18;;;4.00;99.90;;;;;;5078122;28;20289;-76
2021/12/02 07:01:21;;;;;;;16.55;5.80;;;3.80;99.90;;;;;;5071767;28;20195;-79
2021/12/02 07:03:48;;;;;;;15.68;5.13;;;3.80;99.90;;;;;;5073496;28;20220;-77
2021/12/02 07:06:17;;;;;;;7.50;4.03;;;3.70;99.90;;;;;;5074215;28;20266;-79
2021/12/02 07:08:45;;;;;;;7.90;3.40;;;3.60;99.90;;;;;;5072370;28;20237;-77
2021/12/02 07:11:12;;;;;;;6.85;3.13;;;3.60;99.90;;;;;;5062084;28;20306;-73
2021/12/02 07:13:40;;;;;;;6.28;2.95;;;3.60;99.90;;;;;;5071464;28;20270;-74
2021/12/02 07:16:07;;;;;;;7.07;2.45;;;3.60;99.90;;;;;;5075586;28;20252;-73
2021/12/02 07:18:38;;;;;;;7.43;2.30;;;3.60;99.90;;;;;;5069234;28;20250;-73
2021/12/02 07:21:05;;;;;;;8.52;3.72;;;3.70;99.90;;;;;;5063362;28;20188;-73
2021/12/02 07:23:32;;;;;;;12.68;4.20;;;3.70;99.90;;;;;;5067868;28;20677;-72
2021/12/02 07:26:01;;;;;;;5.75;2.50;;;3.60;99.90;;;;;;5066871;28;20198;-73
2021/12/02 07:28:27;;;;;;;8.63;2.95;;;3.50;99.90;;;;;;5073579;28;20282;-71
2021/12/02 07:30:56;;;;;;;5.80;2.50;;;3.40;99.90;;;;;;5071835;28;20298;-73
2021/12/02 07:33:28;;;;;;;5.90;2.53;;;3.40;99.90;;;;;;5074075;28;20272;-74
2021/12/02 07:35:55;;;;;;;7.88;2.45;;;3.30;99.90;;;;;;5071122;28;20199;-71
2021/12/02 07:38:25;;;;;;;10.55;2.70;;;3.10;99.90;;;;;;5073511;28;20203;-72
2021/12/02 07:40:52;;;;;;;6.93;2.08;;;3.10;99.90;;;;;;5068742;28;20191;-71
2021/12/02 07:43:22;;;;;;;13.23;4.00;;;2.90;99.90;;;;;;5071211;28;20385;-70
2021/12/02 07:45:49;;;;;;;5.28;1.65;;;2.90;99.90;;;;;;5073136;28;20230;-72
2021/12/02 07:48:18;;;;;;;5.05;2.20;;;3.00;99.90;;;;;;5065834;28;20195;-70
2021/12/02 07:50:45;;;;;;;8.25;2.35;;;3.10;99.90;;;;;;5059421;28;20321;-72
2021/12/02 07:53:14;;;;;;;21.63;2.88;;;3.10;99.90;;;;;;5065726;28;20751;-72
2021/12/02 07:55:41;;;;;;;5.43;2.75;;;3.10;99.90;;;;;;5063108;28;20249;-71
2021/12/02 07:58:10;;;;;;;10.93;2.97;;;3.10;99.90;;;;;;5064805;28;20293;-73
2021/12/02 08:00:40;;;;;;;6.10;3.03;;;3.20;99.90;;;;;;5063334;28;20521;-71
2021/12/02 08:03:09;;;;;;;7.03;2.03;;;3.40;99.90;;;;;;5064208;28;20273;-70
2021/12/02 08:05:37;;;;;;;5.97;2.60;;;3.40;99.90;;;;;;5066375;28;20709;-70
2021/12/02 08:08:04;;;;;;;8.43;2.90;;;3.40;99.90;;;;;;5067152;28;20665;-71
2021/12/02 08:10:31;;;;;;;8.27;2.42;;;3.40;99.90;;;;;;5058214;28;20214;-71
2021/12/02 08:13:00;;;;;;;5.88;2.40;;;3.30;99.90;;;;;;5064088;28;20302;-72
2021/12/02 08:15:30;;;;;;;15.73;2.70;;;3.30;99.90;;;;;;5058123;28;20207;-72
2021/12/02 08:17:59;;;;;;;7.00;2.88;;;3.30;99.90;;;;;;5066948;28;20227;-72
2021/12/02 08:20:28;;;;;;;39.63;18.88;;;3.30;99.90;;;;;;5066362;28;20227;-73
2021/12/02 08:22:57;;;;;;;39.92;22.65;;;3.30;99.90;;;;;;5070659;28;20754;-71
2021/12/02 08:25:26;;;;;;;31.48;20.88;;;3.40;99.90;;;;;;5064159;28;20272;-74
2021/12/02 08:27:54;;;;;;;35.08;19.70;;;3.40;99.90;;;;;;5061933;28;20206;-73
2021/12/02 08:30:24;;;;;;;36.72;20.35;;;3.40;99.90;;;;;;5063417;28;20202;-71
2021/12/02 08:32:51;;;;;;;43.50;26.45;;;3.50;99.90;;;;;;5064152;28;20237;-72
2021/12/02 08:35:21;;;;;;;50.88;24.65;;;3.70;99.90;;;;;;5061560;28;20257;-71
2021/12/02 08:37:51;;;;;;;31.60;12.18;;;3.80;99.90;;;;;;5061146;28;20199;-71
2021/12/02 08:40:23;;;;;;;20.20;8.82;;;4.00;99.90;;;;;;5062677;28;20205;-73
2021/12/02 08:42:50;;;;;;;26.70;8.68;;;3.90;99.90;;;;;;5059733;28;20226;-71
2021/12/02 08:45:17;;;;;;;11.55;7.22;;;4.00;99.90;;;;;;5055437;28;20203;-70
2021/12/02 08:47:45;;;;;;;9.80;5.30;;;4.00;99.90;;;;;;5062810;28;20278;-71
2021/12/02 08:50:14;;;;;;;8.35;6.05;;;4.10;99.90;;;;;;5072165;28;20925;-72
2021/12/02 08:52:42;;;;;;;10.43;4.90;;;4.20;99.90;;;;;;5065703;28;20791;-70
2021/12/02 08:55:10;;;;;;;14.70;7.53;;;4.10;99.90;;;;;;5069261;28;20207;-74
2021/12/02 08:57:37;;;;;;;13.50;5.97;;;4.10;99.90;;;;;;5070324;28;20235;-71
2021/12/02 09:00:06;;;;;;;11.07;5.72;;;4.00;99.90;;;;;;5068376;28;20203;-74
2021/12/02 09:02:34;;;;;;;9.82;5.45;;;4.10;99.90;;;;;;5074124;28;20698;-74
2021/12/02 09:05:03;;;;;;;10.55;5.63;;;4.20;99.90;;;;;;5069043;28;20199;-73
2021/12/02 09:07:30;;;;;;;14.52;5.88;;;4.20;99.90;;;;;;5073473;28;20207;-74
2021/12/02 09:09:59;;;;;;;12.70;6.25;;;4.40;99.90;;;;;;5072770;28;20286;-72
2021/12/02 09:12:26;;;;;;;12.15;4.97;;;4.60;99.90;;;;;;5074535;28;20306;-76
2021/12/02 09:14:53;;;;;;;13.05;5.45;;;4.70;99.90;;;;;;5074379;28;20290;-74
2021/12/02 09:17:20;;;;;;;12.40;5.32;;;4.90;99.90;;;;;;5065259;28;20195;-72
2021/12/02 09:19:47;;;;;;;7.95;4.47;;;5.20;99.90;;;;;;5059423;28;20238;-72
2021/12/02 09:22:15;;;;;;;6.75;4.35;;;5.90;99.90;;;;;;5060122;28;20695;-77
2021/12/02 09:24:43;;;;;;;6.38;3.22;;;6.70;99.90;;;;;;5069935;28;20617;-74
2021/12/02 09:27:11;;;;;;;6.55;3.30;;;7.30;99.90;;;;;;5069805;28;20291;-74
2021/12/02 09:29:38;;;;;;;7.82;3.25;;;8.20;99.90;;;;;;5058162;28;20634;-75
2021/12/02 09:32:06;;;;;;;6.88;3.67;;;9.00;99.90;;;;;;5066743;28;20255;-76
2021/12/02 09:34:33;;;;;;;8.48;4.03;;;9.80;99.90;;;;;;5071391;28;20283;-75
2021/12/02 09:37:00;;;;;;;13.32;3.80;;;10.60;99.90;;;;;;5074023;28;20719;-75
2021/12/02 09:39:29;;;;;;;6.57;4.60;;;10.80;99.90;;;;;;5065833;28;20206;-74
2021/12/02 09:41:57;;;;;;;6.80;4.20;;;11.30;99.90;;;;;;5072596;28;20688;-74
2021/12/02 09:44:25;;;;;;;12.48;4.75;;;11.40;99.90;;;;;;5071825;28;20205;-74
2021/12/02 09:46:53;;;;;;;5.93;3.83;;;11.60;99.90;;;;;;5063690;28;20195;-73
2021/12/02 09:49:22;;;;;;;5.78;4.50;;;11.30;99.90;;;;;;5069038;28;20288;-73
2021/12/02 09:51:59;;;;;;;3.83;3.28;;;11.50;99.90;;;;;;5058917;28;20596;-74
2021/12/02 09:54:32;;;;;;;5.55;3.92;;;11.30;99.90;;;;;;5051251;28;20236;-74
2021/12/02 09:57:03;;;;;;;8.20;4.43;;;10.40;99.90;;;;;;5064565;28;20201;-72
2021/12/02 09:59:39;;;;;;;6.85;3.80;;;9.70;99.90;;;;;;5066138;28;20519;-76
2021/12/02 10:02:07;;;;;;;5.40;4.03;;;9.50;99.90;;;;;;5055310;28;20242;-72
2021/12/02 10:04:39;;;;;;;7.80;4.30;;;9.30;99.90;;;;;;5068290;28;20230;-75
2021/12/02 10:07:11;;;;;;;4.85;3.72;;;8.80;99.90;;;;;;5071368;28;20264;-73
2021/12/02 10:09:42;;;;;;;6.80;3.80;;;8.40;99.90;;;;;;5071350;28;20203;-74
2021/12/02 10:12:16;;;;;;;6.15;4.47;;;8.10;99.90;;;;;;5066351;28;20258;-73
2021/12/02 10:14:51;;;;;;;5.13;3.78;;;7.90;99.90;;;;;;5072721;28;20600;-74
2021/12/02 10:17:24;;;;;;;11.15;5.03;;;7.70;99.90;;;;;;5042776;28;20260;-74
2021/12/02 10:20:11;;;;;;;6.40;3.92;;;7.40;99.90;;;;;;5070954;28;20216;-74
2021/12/02 10:22:38;;;;;;;8.13;4.50;;;7.30;99.90;;;;;;5051391;28;20685;-73
2021/12/02 10:25:06;;;;;;;9.25;4.38;;;7.20;99.90;;;;;;5068469;28;20240;-74
2021/12/02 10:27:33;;;;;;;7.20;4.13;;;7.10;99.90;;;;;;5070842;28;20205;-74
2021/12/02 10:30:19;;;;;;;7.53;5.18;;;7.00;99.90;;;;;;5071500;28;20201;-73
2021/12/02 10:32:50;;;;;;;14.75;8.60;;;6.90;99.90;;;;;;5060706;28;20265;-74
2021/12/02 10:35:20;;;;;;;9.35;5.70;;;6.70;99.90;;;;;;5062700;28;20228;-75
2021/12/02 10:37:47;;;;;;;10.18;3.35;;;6.60;99.90;;;;;;5063909;28;20233;-73
2021/12/02 10:40:16;;;;;;;3.13;1.80;;;6.50;99.90;;;;;;5068919;28;20280;-74
2021/12/02 10:42:46;;;;;;;2.50;1.55;;;6.10;99.90;;;;;;5068327;28;20640;-73
2021/12/02 10:45:22;;;;;;;1.88;1.00;;;5.70;99.90;;;;;;5057696;28;20278;-73
2021/12/02 10:47:50;;;;;;;7.43;1.27;;;5.50;99.90;;;;;;5060730;28;20258;-73
2021/12/02 10:50:18;;;;;;;2.22;1.30;;;5.20;99.90;;;;;;5064468;28;20195;-73
2021/12/02 10:52:45;;;;;;;3.05;1.27;;;4.80;99.90;;;;;;5067398;28;20664;-73
2021/12/02 10:55:15;;;;;;;2.95;1.25;;;4.60;99.90;;;;;;5063039;28;20295;-74
2021/12/02 10:57:47;;;;;;;3.15;1.42;;;4.40;99.90;;;;;;5067876;28;20195;-72
2021/12/02 11:00:17;;;;;;;2.70;1.45;;;4.30;99.90;;;;;;5066203;28;20199;-73
2021/12/02 11:02:48;;;;;;;5.35;4.30;;;4.30;99.90;;;;;;5072390;28;20681;-74
2021/12/02 11:05:21;;;;;;;3.35;1.08;;;4.10;99.90;;;;;;5067681;28;20206;-74
2021/12/02 11:07:53;;;;;;;6.35;2.05;;;4.00;99.90;;;;;;5075585;28;20203;-74
2021/12/02 11:10:21;;;;;;;5.40;1.70;;;4.00;99.90;;;;;;5066301;28;20199;-74
2021/12/02 11:12:51;;;;;;;5.20;1.55;;;4.00;99.90;;;;;;5070377;28;20306;-73
2021/12/02 11:15:21;;;;;;;1.50;1.10;;;3.80;99.90;;;;;;5073085;28;20234;-74
2021/12/02 11:17:52;;;;;;;3.25;1.42;;;3.60;99.90;;;;;;5074828;28;20247;-74
2021/12/02 11:20:22;;;;;;;2.53;1.35;;;3.50;99.90;;;;;;5066467;28;20282;-75
2021/12/02 11:22:53;;;;;;;3.75;1.90;;;3.50;99.90;;;;;;5069013;28;20214;-75
2021/12/02 11:25:20;;;;;;;4.45;2.83;;;3.40;99.90;;;;;;5070635;28;20227;-75
2021/12/02 11:27:48;;;;;;;1.58;1.30;;;3.40;99.90;;;;;;5068991;28;20290;-73
2021/12/02 11:30:18;;;;;;;4.05;1.35;;;3.50;99.90;;;;;;5072517;28;20626;-73
2021/12/02 11:32:53;;;;;;;7.47;2.30;;;3.40;99.90;;;;;;5063627;28;20292;-73
2021/12/02 11:35:28;;;;;;;4.28;2.20;;;3.30;99.90;;;;;;5054918;28;20538;-74
2021/12/02 11:37:59;;;;;;;5.20;2.15;;;3.50;99.90;;;;;;5071601;28;20293;-74
2021/12/02 11:40:29;;;;;;;3.28;2.10;;;3.70;99.90;;;;;;5060235;28;20357;-71
2021/12/02 11:42:57;;;;;;;7.28;2.70;;;3.80;99.90;;;;;;5063531;28;20777;-77
2021/12/02 11:45:26;;;;;;;1.98;1.80;;;3.90;99.90;;;;;;5071832;28;20253;-72
2021/12/02 11:47:56;;;;;;;4.45;2.13;;;3.90;99.90;;;;;;5075440;28;20226;-72
2021/12/02 11:50:25;;;;;;;3.47;1.52;;;4.10;99.90;;;;;;5068729;28;20363;-74
2021/12/02 11:52:53;;;;;;;6.53;1.40;;;4.10;99.90;;;;;;5062447;28;20228;-74
2021/12/02 11:55:23;;;;;;;6.63;1.30;;;4.10;99.90;;;;;;5074357;28;20203;-74
2021/12/02 11:57:51;;;;;;;3.50;0.70;;;4.10;99.90;;;;;;5062354;28;20230;-73
2021/12/02 12:00:20;;;;;;;2.20;0.80;;;4.20;99.90;;;;;;5058309;28;20211;-71
2021/12/02 12:02:50;;;;;;;6.40;1.70;;;4.30;99.90;;;;;;5069262;28;20303;-73
2021/12/02 12:05:24;;;;;;;1.17;0.90;;;4.30;99.90;;;;;;5066243;28;20202;-73
2021/12/02 12:07:51;;;;;;;29.00;3.35;;;4.40;99.90;;;;;;5053261;28;20237;-73
2021/12/02 12:10:27;;;;;;;11.07;1.67;;;4.40;99.90;;;;;;5068968;28;20281;-75
2021/12/02 12:13:11;;;;;;;1.65;1.30;;;4.40;99.90;;;;;;5069642;28;20226;-73
2021/12/02 12:15:41;;;;;;;5.10;1.52;;;4.50;99.90;;;;;;5066761;28;20266;-73
2021/12/02 12:18:10;;;;;;;11.30;1.50;;;4.40;99.90;;;;;;5073945;28;20576;-75
2021/12/02 12:21:03;;;;;;;1.10;0.82;;;4.30;99.90;;;;;;5065358;28;20237;-73
2021/12/02 12:24:02;;;;;;;2.95;1.50;;;4.30;99.90;;;;;;5068629;28;20224;-72
2021/12/02 12:26:33;;;;;;;4.68;2.55;;;4.30;99.90;;;;;;5018894;28;20207;-75
2021/12/02 12:29:33;;;;;;;4.50;1.95;;;4.40;99.90;;;;;;5058678;28;20229;-75
2021/12/02 12:35:07;;;;;;;4.15;2.30;;;4.20;99.90;;;;;;5051318;28;20206;-76
2021/12/02 12:37:51;;;;;;;6.55;1.85;;;4.20;99.90;;;;;;5065646;28;20211;-71
2021/12/02 12:40:22;;;;;;;21.27;2.55;;;4.20;99.90;;;;;;5070423;28;20244;-71
2021/12/02 12:42:51;;;;;;;4.10;1.60;;;4.20;99.90;;;;;;5069088;28;20273;-71
2021/12/02 12:45:28;;;;;;;4.45;2.05;;;4.30;99.90;;;;;;5070782;28;20237;-75
2021/12/02 12:47:58;;;;;;;7.55;2.42;;;4.40;99.90;;;;;;5071080;28;20673;-73
2021/12/02 12:50:32;;;;;;;4.10;1.40;;;4.40;99.90;;;;;;5072736;28;20202;-75
2021/12/02 12:53:38;;;;;;;2.00;1.35;;;4.40;99.90;;;;;;5069855;28;20222;-74
2021/12/02 12:56:09;;;;;;;6.18;1.42;;;4.40;99.90;;;;;;5060138;28;20283;-73
2021/12/02 12:58:37;;;;;;;4.78;2.10;;;4.50;99.90;;;;;;5065691;28;20650;-71
2021/12/02 13:01:18;;;;;;;4.82;1.70;;;4.50;99.90;;;;;;5062771;28;20221;-73
2021/12/02 13:04:03;;;;;;;2.30;1.70;;;4.30;99.90;;;;;;5060641;28;20227;-73
2021/12/02 13:06:33;;;;;;;4.85;1.63;;;4.20;99.90;;;;;;5069427;28;20210;-75
2021/12/02 13:09:03;;;;;;;4.50;1.30;;;4.10;99.90;;;;;;5066532;28;20767;-73
2021/12/02 13:11:32;;;;;;;2.65;1.55;;;4.00;99.90;;;;;;5060584;28;20215;-73
2021/12/02 13:14:00;;;;;;;2.53;1.52;;;3.90;99.90;;;;;;5065028;28;20564;-73